sensor_id;sensor_type;location;lat;lon;timestamp;pressure;altitude;pressure_sealevel;temperature;humidity
73024;BME280;61199;47.526;8.538;2022-12-20T00:01:07;97192.56;;;3.65;75.42
73024;BME280;61199;47.526;8.538;2022-12-20T00:03:34;97181.56;;;3.60;75.31
73024;BME280;61199;47.526;8.538;2022-12-20T00:06:01;97182.94;;;3.67;75.63
73024;BME280;61199;47.526;8.538;2022-12-20T00:08:27;97191.53;;;3.68;74.99
73024;BME280;61199;47.526;8.538;2022-12-20T00:10:54;97183.66;;;3.71;74.99
73024;BME280;61199;47.526;8.538;2022-12-20T00:13:20;97192.63;;;3.64;75.42
73024;BME280;61199;47.526;8.538;2022-12-20T00:15:47;97196.94;;;3.63;75.39
73024;BME280;61199;47.526;8.538;2022-12-20T00:18:14;97190.72;;;3.67;75.39
73024;BME280;61199;47.526;8.538;2022-12-20T00:20:40;97192.09;;;3.57;75.07
73024;BME280;61199;47.526;8.538;2022-12-20T00:23:06;97182.75;;;3.53;75.48
73024;BME280;61199;47.526;8.538;2022-12-20T00:25:33;97192.38;;;3.51;75.87
73024;BME280;61199;47.526;8.538;2022-12-20T00:27:59;97198.19;;;3.56;75.53
73024;BME280;61199;47.526;8.538;2022-12-20T00:30:28;97202.91;;;3.65;75.51
73024;BME280;61199;47.526;8.538;2022-12-20T00:32:54;97200.78;;;3.56;75.87
73024;BME280;61199;47.526;8.538;2022-12-20T00:35:21;97200.53;;;3.61;75.69
73024;BME280;61199;47.526;8.538;2022-12-20T00:37:47;97196.03;;;3.64;75.64
73024;BME280;61199;47.526;8.538;2022-12-20T00:40:14;97183.41;;;3.58;75.18
73024;BME280;61199;47.526;8.538;2022-12-20T00:42:40;97172.59;;;3.67;75.40
73024;BME280;61199;47.526;8.538;2022-12-20T00:45:07;97156.72;;;3.73;75.11
73024;BME280;61199;47.526;8.538;2022-12-20T00:47:33;97170.91;;;3.66;75.16
73024;BME280;61199;47.526;8.538;2022-12-20T00:50:00;97164.34;;;3.59;75.42
73024;BME280;61199;47.526;8.538;2022-12-20T00:52:26;97161.44;;;3.48;75.68
73024;BME280;61199;47.526;8.538;2022-12-20T00:54:53;97156.28;;;3.48;75.24
73024;BME280;61199;47.526;8.538;2022-12-20T00:57:19;97153.53;;;3.51;75.56
73024;BME280;61199;47.526;8.538;2022-12-20T00:59:45;97160.59;;;3.48;76.01
73024;BME280;61199;47.526;8.538;2022-12-20T01:02:12;97173.00;;;3.41;76.42
73024;BME280;61199;47.526;8.538;2022-12-20T01:04:38;97185.41;;;3.35;76.02
73024;BME280;61199;47.526;8.538;2022-12-20T01:07:05;97167.19;;;3.36;76.40
73024;BME280;61199;47.526;8.538;2022-12-20T01:09:31;97180.78;;;3.41;76.15
73024;BME280;61199;47.526;8.538;2022-12-20T01:11:58;97173.75;;;3.43;76.55
73024;BME280;61199;47.526;8.538;2022-12-20T01:14:24;97175.59;;;3.41;76.29
73024;BME280;61199;47.526;8.538;2022-12-20T01:16:50;97171.13;;;3.45;76.12
73024;BME280;61199;47.526;8.538;2022-12-20T01:19:17;97183.00;;;3.49;76.11
73024;BME280;61199;47.526;8.538;2022-12-20T01:21:44;97185.66;;;3.47;76.23
73024;BME280;61199;47.526;8.538;2022-12-20T01:24:15;97175.44;;;3.44;75.72
73024;BME280;61199;47.526;8.538;2022-12-20T01:26:42;97163.81;;;3.53;75.60
73024;BME280;61199;47.526;8.538;2022-12-20T01:29:08;97167.44;;;3.49;76.12
73024;BME280;61199;47.526;8.538;2022-12-20T01:31:35;97166.31;;;3.54;75.55
73024;BME280;61199;47.526;8.538;2022-12-20T01:34:02;97163.81;;;3.53;75.53
73024;BME280;61199;47.526;8.538;2022-12-20T01:36:30;97163.66;;;3.56;75.96
73024;BME280;61199;47.526;8.538;2022-12-20T01:39:11;97165.41;;;3.55;75.58
73024;BME280;61199;47.526;8.538;2022-12-20T01:41:39;97165.50;;;3.54;75.61
73024;BME280;61199;47.526;8.538;2022-12-20T01:46:43;97164.88;;;3.49;75.20
73024;BME280;61199;47.526;8.538;2022-12-20T01:49:20;97179.44;;;3.33;75.72
73024;BME280;61199;47.526;8.538;2022-12-20T01:51:54;97157.28;;;3.27;76.27
73024;BME280;61199;47.526;8.538;2022-12-20T01:54:32;97163.63;;;3.03;76.78
73024;BME280;61199;47.526;8.538;2022-12-20T01:57:01;97156.19;;;3.14;76.52
73024;BME280;61199;47.526;8.538;2022-12-20T01:59:30;97147.50;;;3.15;76.54
73024;BME280;61199;47.526;8.538;2022-12-20T02:02:01;97152.25;;;3.24;76.71
73024;BME280;61199;47.526;8.538;2022-12-20T02:04:29;97142.75;;;3.25;76.67
73024;BME280;61199;47.526;8.538;2022-12-20T02:06:55;97145.94;;;3.30;76.33
73024;BME280;61199;47.526;8.538;2022-12-20T02:09:23;97137.81;;;3.37;76.21
73024;BME280;61199;47.526;8.538;2022-12-20T02:12:02;97144.81;;;3.35;76.42
73024;BME280;61199;47.526;8.538;2022-12-20T02:14:55;97127.16;;;3.43;76.19
73024;BME280;61199;47.526;8.538;2022-12-20T02:31:40;97138.94;;;2.96;76.55
73024;BME280;61199;47.526;8.538;2022-12-20T02:34:09;97125.50;;;3.07;76.18
73024;BME280;61199;47.526;8.538;2022-12-20T02:36:36;97118.44;;;3.10;76.09
73024;BME280;61199;47.526;8.538;2022-12-20T02:39:02;97122.63;;;3.13;75.96
73024;BME280;61199;47.526;8.538;2022-12-20T02:41:33;97130.47;;;3.11;76.14
73024;BME280;61199;47.526;8.538;2022-12-20T02:44:08;97117.91;;;3.21;76.15
73024;BME280;61199;47.526;8.538;2022-12-20T02:46:56;97104.28;;;3.17;76.02
73024;BME280;61199;47.526;8.538;2022-12-20T02:49:29;97101.47;;;3.22;76.18
73024;BME280;61199;47.526;8.538;2022-12-20T02:51:56;97102.47;;;3.19;75.96
73024;BME280;61199;47.526;8.538;2022-12-20T02:54:24;97104.50;;;3.13;76.01
73024;BME280;61199;47.526;8.538;2022-12-20T02:57:00;97106.59;;;3.23;75.81
73024;BME280;61199;47.526;8.538;2022-12-20T02:59:36;97091.66;;;3.28;75.84
73024;BME280;61199;47.526;8.538;2022-12-20T03:02:06;97082.84;;;3.32;75.99
73024;BME280;61199;47.526;8.538;2022-12-20T03:04:35;97087.09;;;3.33;75.28
73024;BME280;61199;47.526;8.538;2022-12-20T03:07:05;97083.75;;;3.31;75.09
73024;BME280;61199;47.526;8.538;2022-12-20T03:09:36;97082.16;;;3.29;75.40
73024;BME280;61199;47.526;8.538;2022-12-20T03:12:04;97087.97;;;3.34;75.76
73024;BME280;61199;47.526;8.538;2022-12-20T03:14:30;97090.44;;;3.18;74.92
73024;BME280;61199;47.526;8.538;2022-12-20T03:16:57;97081.91;;;3.16;75.03
73024;BME280;61199;47.526;8.538;2022-12-20T03:19:24;97078.09;;;3.06;76.16
73024;BME280;61199;47.526;8.538;2022-12-20T03:21:51;97074.91;;;3.01;75.61
73024;BME280;61199;47.526;8.538;2022-12-20T03:24:18;97066.13;;;3.04;76.23
73024;BME280;61199;47.526;8.538;2022-12-20T03:26:44;97079.53;;;3.12;75.70
73024;BME280;61199;47.526;8.538;2022-12-20T03:29:11;97070.31;;;3.06;75.68
73024;BME280;61199;47.526;8.538;2022-12-20T03:31:37;97063.16;;;2.94;75.90
73024;BME280;61199;47.526;8.538;2022-12-20T03:34:04;97066.34;;;2.99;75.85
73024;BME280;61199;47.526;8.538;2022-12-20T03:36:31;97058.28;;;2.88;75.86
73024;BME280;61199;47.526;8.538;2022-12-20T03:38:57;97056.38;;;2.92;75.41
73024;BME280;61199;47.526;8.538;2022-12-20T03:41:24;97059.88;;;2.91;75.91
73024;BME280;61199;47.526;8.538;2022-12-20T03:43:51;97044.28;;;2.92;75.82
73024;BME280;61199;47.526;8.538;2022-12-20T03:46:18;97058.13;;;2.38;78.43
73024;BME280;61199;47.526;8.538;2022-12-20T03:48:44;97064.06;;;2.40;78.43
73024;BME280;61199;47.526;8.538;2022-12-20T03:51:10;97047.13;;;1.96;80.78
73024;BME280;61199;47.526;8.538;2022-12-20T03:53:37;97087.00;;;2.09;80.41
73024;BME280;61199;47.526;8.538;2022-12-20T03:56:03;97048.66;;;2.37;79.78
73024;BME280;61199;47.526;8.538;2022-12-20T03:58:30;97086.78;;;2.13;80.64
73024;BME280;61199;47.526;8.538;2022-12-20T04:00:57;97064.75;;;2.25;80.12
73024;BME280;61199;47.526;8.538;2022-12-20T04:03:23;97059.31;;;2.31;80.22
73024;BME280;61199;47.526;8.538;2022-12-20T04:05:50;97078.38;;;2.47;79.75
73024;BME280;61199;47.526;8.538;2022-12-20T04:08:18;97069.91;;;2.62;79.02
73024;BME280;61199;47.526;8.538;2022-12-20T04:10:45;97079.97;;;2.49;79.26
73024;BME280;61199;47.526;8.538;2022-12-20T04:13:30;97075.59;;;2.51;78.73
73024;BME280;61199;47.526;8.538;2022-12-20T04:15:56;97064.19;;;2.55;78.56
73024;BME280;61199;47.526;8.538;2022-12-20T04:18:26;97059.50;;;2.63;78.54
73024;BME280;61199;47.526;8.538;2022-12-20T04:20:52;97064.94;;;2.76;77.94
73024;BME280;61199;47.526;8.538;2022-12-20T04:23:19;97054.28;;;2.81;77.68
73024;BME280;61199;47.526;8.538;2022-12-20T04:25:45;97067.69;;;2.89;77.45
73024;BME280;61199;47.526;8.538;2022-12-20T04:28:12;97068.63;;;2.88;77.13
73024;BME280;61199;47.526;8.538;2022-12-20T04:30:38;97061.13;;;2.82;77.74
73024;BME280;61199;47.526;8.538;2022-12-20T04:33:04;97063.22;;;2.93;77.47
73024;BME280;61199;47.526;8.538;2022-12-20T04:35:31;97063.81;;;2.81;77.40
73024;BME280;61199;47.526;8.538;2022-12-20T04:37:58;97068.44;;;2.75;77.67
73024;BME280;61199;47.526;8.538;2022-12-20T04:40:24;97070.59;;;2.83;77.71
73024;BME280;61199;47.526;8.538;2022-12-20T04:42:50;97057.19;;;2.76;77.74
73024;BME280;61199;47.526;8.538;2022-12-20T04:45:17;97074.31;;;2.41;77.79
73024;BME280;61199;47.526;8.538;2022-12-20T04:47:43;97060.06;;;2.33;79.20
73024;BME280;61199;47.526;8.538;2022-12-20T04:50:10;97059.50;;;2.45;78.93
73024;BME280;61199;47.526;8.538;2022-12-20T04:52:36;97064.94;;;2.57;78.30
73024;BME280;61199;47.526;8.538;2022-12-20T04:55:22;97061.13;;;2.66;78.24
73024;BME280;61199;47.526;8.538;2022-12-20T04:57:48;97056.28;;;2.77;77.72
73024;BME280;61199;47.526;8.538;2022-12-20T05:00:15;97053.31;;;2.84;77.96
73024;BME280;61199;47.526;8.538;2022-12-20T05:02:42;97048.78;;;2.89;77.30
73024;BME280;61199;47.526;8.538;2022-12-20T05:05:08;97045.34;;;2.88;77.18
73024;BME280;61199;47.526;8.538;2022-12-20T05:07:35;97038.22;;;2.93;76.64
73024;BME280;61199;47.526;8.538;2022-12-20T05:10:01;97038.06;;;2.96;76.95
73024;BME280;61199;47.526;8.538;2022-12-20T05:12:28;97029.09;;;3.03;76.78
73024;BME280;61199;47.526;8.538;2022-12-20T05:14:54;97034.38;;;3.00;76.82
73024;BME280;61199;47.526;8.538;2022-12-20T05:17:21;97035.03;;;3.05;76.23
73024;BME280;61199;47.526;8.538;2022-12-20T05:19:47;97034.38;;;3.00;76.84
73024;BME280;61199;47.526;8.538;2022-12-20T05:22:13;97041.41;;;3.15;76.62
73024;BME280;61199;47.526;8.538;2022-12-20T05:24:59;97039.59;;;3.17;76.48
73024;BME280;61199;47.526;8.538;2022-12-20T05:27:44;97028.78;;;3.09;76.06
73024;BME280;61199;47.526;8.538;2022-12-20T05:30:10;97031.50;;;3.06;76.25
73024;BME280;61199;47.526;8.538;2022-12-20T05:32:37;97038.06;;;3.13;75.77
73024;BME280;61199;47.526;8.538;2022-12-20T05:35:04;97028.72;;;3.11;76.36
73024;BME280;61199;47.526;8.538;2022-12-20T05:37:30;97025.13;;;3.13;75.52
73024;BME280;61199;47.526;8.538;2022-12-20T05:39:57;97025.13;;;3.13;75.82
73024;BME280;61199;47.526;8.538;2022-12-20T05:42:23;97019.03;;;3.14;75.99
73024;BME280;61199;47.526;8.538;2022-12-20T05:44:49;97015.53;;;3.15;75.50
73024;BME280;61199;47.526;8.538;2022-12-20T05:47:16;97011.75;;;3.05;75.85
73024;BME280;61199;47.526;8.538;2022-12-20T05:49:43;97011.31;;;2.96;76.20
73024;BME280;61199;47.526;8.538;2022-12-20T05:52:09;97013.84;;;2.97;75.91
73024;BME280;61199;47.526;8.538;2022-12-20T05:54:36;97012.03;;;2.99;75.73
73024;BME280;61199;47.526;8.538;2022-12-20T05:57:02;97020.00;;;2.95;75.80
73024;BME280;61199;47.526;8.538;2022-12-20T05:59:29;97010.56;;;2.94;75.82
73024;BME280;61199;47.526;8.538;2022-12-20T06:01:55;97021.16;;;2.89;75.76
73024;BME280;61199;47.526;8.538;2022-12-20T06:04:22;97022.06;;;2.88;75.75
73024;BME280;61199;47.526;8.538;2022-12-20T06:06:48;97017.66;;;2.90;76.08
73024;BME280;61199;47.526;8.538;2022-12-20T06:09:15;97017.66;;;2.90;75.35
73024;BME280;61199;47.526;8.538;2022-12-20T06:11:41;97022.22;;;2.85;75.94
73024;BME280;61199;47.526;8.538;2022-12-20T06:14:08;97021.78;;;2.94;75.52
73024;BME280;61199;47.526;8.538;2022-12-20T06:16:34;97016.81;;;2.90;75.55
73024;BME280;61199;47.526;8.538;2022-12-20T06:19:01;97008.75;;;2.96;75.56
73024;BME280;61199;47.526;8.538;2022-12-20T06:21:28;97007.28;;;2.90;75.77
73024;BME280;61199;47.526;8.538;2022-12-20T06:23:54;97002.81;;;2.94;75.60
73024;BME280;61199;47.526;8.538;2022-12-20T06:26:21;97000.97;;;2.96;75.11
73024;BME280;61199;47.526;8.538;2022-12-20T06:28:49;97004.72;;;2.90;74.94
73024;BME280;61199;47.526;8.538;2022-12-20T06:31:18;97003.88;;;2.90;75.54
73024;BME280;61199;47.526;8.538;2022-12-20T06:33:44;97003.50;;;2.97;75.24
73024;BME280;61199;47.526;8.538;2022-12-20T06:36:11;97007.53;;;2.86;75.39
73024;BME280;61199;47.526;8.538;2022-12-20T06:38:37;97000.78;;;2.83;76.02
73024;BME280;61199;47.526;8.538;2022-12-20T06:41:03;96999.50;;;2.73;76.22
73024;BME280;61199;47.526;8.538;2022-12-20T06:43:30;97013.00;;;2.80;75.93
73024;BME280;61199;47.526;8.538;2022-12-20T06:45:57;97019.13;;;2.61;76.95
73024;BME280;61199;47.526;8.538;2022-12-20T06:48:23;97018.84;;;2.67;76.95
73024;BME280;61199;47.526;8.538;2022-12-20T06:50:49;97016.03;;;2.71;77.03
73024;BME280;61199;47.526;8.538;2022-12-20T06:53:21;97010.00;;;2.71;76.97
73024;BME280;61199;47.526;8.538;2022-12-20T06:55:48;97020.88;;;2.77;77.27
73024;BME280;61199;47.526;8.538;2022-12-20T06:58:18;97012.78;;;2.84;77.07
73024;BME280;61199;47.526;8.538;2022-12-20T07:00:45;97006.75;;;2.84;76.57
73024;BME280;61199;47.526;8.538;2022-12-20T07:03:12;97004.94;;;2.86;76.09
73024;BME280;61199;47.526;8.538;2022-12-20T07:05:40;96996.81;;;2.93;76.29
73024;BME280;61199;47.526;8.538;2022-12-20T07:08:07;96998.63;;;2.91;76.21
73024;BME280;61199;47.526;8.538;2022-12-20T07:10:35;96991.50;;;2.96;76.00
73024;BME280;61199;47.526;8.538;2022-12-20T07:13:02;96994.69;;;3.01;76.08
73024;BME280;61199;47.526;8.538;2022-12-20T07:15:28;97002.59;;;2.98;75.98
73024;BME280;61199;47.526;8.538;2022-12-20T07:17:55;96989.53;;;3.01;76.40
73024;BME280;61199;47.526;8.538;2022-12-20T07:20:21;97000.75;;;3.00;76.25
73024;BME280;61199;47.526;8.538;2022-12-20T07:22:48;97004.13;;;2.85;76.67
73024;BME280;61199;47.526;8.538;2022-12-20T07:25:14;96994.06;;;2.79;76.90
73024;BME280;61199;47.526;8.538;2022-12-20T07:27:41;97000.34;;;2.74;76.24
73024;BME280;61199;47.526;8.538;2022-12-20T07:30:09;96999.16;;;2.81;76.28
73024;BME280;61199;47.526;8.538;2022-12-20T07:32:35;96998.91;;;2.69;76.80
73024;BME280;61199;47.526;8.538;2022-12-20T07:35:16;96999.97;;;2.81;76.63
73024;BME280;61199;47.526;8.538;2022-12-20T07:37:43;97008.97;;;2.91;76.11
73024;BME280;61199;47.526;8.538;2022-12-20T07:40:10;97013.53;;;2.86;76.13
73024;BME280;61199;47.526;8.538;2022-12-20T07:42:37;97014.47;;;2.85;75.74
73024;BME280;61199;47.526;8.538;2022-12-20T07:45:13;97015.00;;;2.92;75.83
73024;BME280;61199;47.526;8.538;2022-12-20T07:47:40;97006.16;;;2.96;75.59
73024;BME280;61199;47.526;8.538;2022-12-20T07:50:07;97001.38;;;3.05;75.49
73024;BME280;61199;47.526;8.538;2022-12-20T07:52:34;97003.81;;;3.08;75.37
73024;BME280;61199;47.526;8.538;2022-12-20T07:55:04;97010.66;;;3.09;75.85
73024;BME280;61199;47.526;8.538;2022-12-20T07:57:39;97004.59;;;3.10;75.56
73024;BME280;61199;47.526;8.538;2022-12-20T08:00:07;96997.88;;;3.06;75.62
73024;BME280;61199;47.526;8.538;2022-12-20T08:02:41;97009.84;;;3.09;75.01
73024;BME280;61199;47.526;8.538;2022-12-20T08:05:11;96992.66;;;3.08;75.96
73024;BME280;61199;47.526;8.538;2022-12-20T08:07:39;96991.50;;;3.13;75.44
73024;BME280;61199;47.526;8.538;2022-12-20T08:10:07;96993.94;;;3.16;75.70
73024;BME280;61199;47.526;8.538;2022-12-20T08:12:35;96988.63;;;3.19;75.41
73024;BME280;61199;47.526;8.538;2022-12-20T08:15:02;96994.44;;;3.23;76.04
73024;BME280;61199;47.526;8.538;2022-12-20T08:17:28;96988.28;;;3.25;75.06
73024;BME280;61199;47.526;8.538;2022-12-20T08:19:54;96980.47;;;3.27;75.85
73024;BME280;61199;47.526;8.538;2022-12-20T08:22:22;96974.81;;;3.36;75.49
73024;BME280;61199;47.526;8.538;2022-12-20T08:24:49;96968.72;;;3.37;75.63
73024;BME280;61199;47.526;8.538;2022-12-20T08:27:15;96974.72;;;3.37;75.14
73024;BME280;61199;47.526;8.538;2022-12-20T08:29:41;96974.59;;;3.23;76.06
73024;BME280;61199;47.526;8.538;2022-12-20T08:32:08;96974.31;;;3.29;75.96
73024;BME280;61199;47.526;8.538;2022-12-20T08:34:35;96974.50;;;3.42;75.98
73024;BME280;61199;47.526;8.538;2022-12-20T08:37:02;96975.84;;;3.49;75.38
73024;BME280;61199;47.526;8.538;2022-12-20T08:39:35;96979.38;;;3.48;75.59
73024;BME280;61199;47.526;8.538;2022-12-20T08:42:03;96968.25;;;3.46;75.54
73024;BME280;61199;47.526;8.538;2022-12-20T08:44:30;96977.63;;;3.48;75.53
73024;BME280;61199;47.526;8.538;2022-12-20T08:46:56;96975.34;;;3.42;75.86
73024;BME280;61199;47.526;8.538;2022-12-20T08:49:23;96981.13;;;3.47;76.17
73024;BME280;61199;47.526;8.538;2022-12-20T08:51:49;96987.06;;;3.49;76.16
73024;BME280;61199;47.526;8.538;2022-12-20T08:54:16;96978.22;;;3.53;75.91
73024;BME280;61199;47.526;8.538;2022-12-20T08:56:42;96992.06;;;3.52;76.04
73024;BME280;61199;47.526;8.538;2022-12-20T08:59:09;96979.88;;;3.54;76.20
73024;BME280;61199;47.526;8.538;2022-12-20T09:01:35;96990.25;;;3.54;75.80
73024;BME280;61199;47.526;8.538;2022-12-20T09:04:03;96982.63;;;3.68;75.78
73024;BME280;61199;47.526;8.538;2022-12-20T09:06:30;96989.63;;;3.66;75.76
73024;BME280;61199;47.526;8.538;2022-12-20T09:08:58;96987.78;;;3.68;75.52
73024;BME280;61199;47.526;8.538;2022-12-20T09:11:26;96987.97;;;3.65;76.21
73024;BME280;61199;47.526;8.538;2022-12-20T09:13:55;96993.13;;;3.65;76.13
73024;BME280;61199;47.526;8.538;2022-12-20T09:16:24;96988.53;;;3.70;75.70
73024;BME280;61199;47.526;8.538;2022-12-20T09:18:53;96994.16;;;3.78;75.48
73024;BME280;61199;47.526;8.538;2022-12-20T09:21:30;96988.50;;;3.87;75.38
73024;BME280;61199;47.526;8.538;2022-12-20T09:23:56;96984.75;;;3.93;74.93
73024;BME280;61199;47.526;8.538;2022-12-20T09:26:23;96989.84;;;3.94;75.14
73024;BME280;61199;47.526;8.538;2022-12-20T09:28:50;96993.50;;;3.90;75.32
73024;BME280;61199;47.526;8.538;2022-12-20T09:31:19;96987.53;;;4.05;75.37
73024;BME280;61199;47.526;8.538;2022-12-20T09:33:46;96987.72;;;4.02;75.18
73024;BME280;61199;47.526;8.538;2022-12-20T09:36:16;96982.34;;;4.05;74.90
73024;BME280;61199;47.526;8.538;2022-12-20T09:38:43;96984.88;;;4.07;75.34
73024;BME280;61199;47.526;8.538;2022-12-20T09:41:27;96972.16;;;4.02;75.27
73024;BME280;61199;47.526;8.538;2022-12-20T09:43:56;96968.28;;;4.09;74.95
73024;BME280;61199;47.526;8.538;2022-12-20T09:46:24;96970.31;;;4.20;75.31
73024;BME280;61199;47.526;8.538;2022-12-20T09:48:51;96961.19;;;4.28;74.82
73024;BME280;61199;47.526;8.538;2022-12-20T09:51:42;96957.72;;;4.29;75.04
73024;BME280;61199;47.526;8.538;2022-12-20T09:54:34;96960.44;;;4.26;75.43
73024;BME280;61199;47.526;8.538;2022-12-20T09:59:55;96953.28;;;4.31;75.35
73024;BME280;61199;47.526;8.538;2022-12-20T10:02:24;96950.19;;;4.25;75.76
73024;BME280;61199;47.526;8.538;2022-12-20T10:05:17;96945.00;;;4.25;75.88
73024;BME280;61199;47.526;8.538;2022-12-20T10:10:36;96936.06;;;4.30;75.75
73024;BME280;61199;47.526;8.538;2022-12-20T10:24:40;96901.03;;;4.68;75.29
73024;BME280;61199;47.526;8.538;2022-12-20T10:27:16;96908.50;;;4.88;74.53
73024;BME280;61199;47.526;8.538;2022-12-20T10:29:44;96897.00;;;4.92;74.47
73024;BME280;61199;47.526;8.538;2022-12-20T10:32:14;96883.97;;;5.08;74.68
73024;BME280;61199;47.526;8.538;2022-12-20T10:35:11;96887.31;;;5.10;74.47
73024;BME280;61199;47.526;8.538;2022-12-20T10:40:45;96872.59;;;5.24;74.42
73024;BME280;61199;47.526;8.538;2022-12-20T10:43:47;96872.97;;;5.32;74.13
73024;BME280;61199;47.526;8.538;2022-12-20T10:46:14;96868.31;;;5.37;74.18
73024;BME280;61199;47.526;8.538;2022-12-20T10:48:46;96858.59;;;5.55;74.19
73024;BME280;61199;47.526;8.538;2022-12-20T10:51:14;96845.69;;;5.53;74.29
73024;BME280;61199;47.526;8.538;2022-12-20T10:53:59;96844.31;;;5.62;73.64
73024;BME280;61199;47.526;8.538;2022-12-20T10:56:33;96829.00;;;5.57;73.82
73024;BME280;61199;47.526;8.538;2022-12-20T11:01:48;96835.50;;;5.36;75.70
73024;BME280;61199;47.526;8.538;2022-12-20T11:04:31;96847.19;;;5.43;75.98
73024;BME280;61199;47.526;8.538;2022-12-20T11:07:00;96856.84;;;5.41;75.32
73024;BME280;61199;47.526;8.538;2022-12-20T11:09:35;96852.75;;;5.51;75.53
73024;BME280;61199;47.526;8.538;2022-12-20T11:12:11;96846.44;;;5.69;75.16
73024;BME280;61199;47.526;8.538;2022-12-20T11:14:40;96836.69;;;5.72;74.72
73024;BME280;61199;47.526;8.538;2022-12-20T11:22:24;96804.09;;;5.81;74.61
73024;BME280;61199;47.526;8.538;2022-12-20T11:25:24;96789.81;;;5.88;74.75
73024;BME280;61199;47.526;8.538;2022-12-20T11:30:50;96783.00;;;5.99;73.94
73024;BME280;61199;47.526;8.538;2022-12-20T11:36:14;96781.19;;;5.73;75.04
73024;BME280;61199;47.526;8.538;2022-12-20T11:38:49;96787.19;;;5.74;74.86
73024;BME280;61199;47.526;8.538;2022-12-20T11:41:47;96790.19;;;5.82;74.63
73024;BME280;61199;47.526;8.538;2022-12-20T11:44:40;96784.97;;;5.82;74.61
73024;BME280;61199;47.526;8.538;2022-12-20T11:53:03;96759.47;;;6.01;74.33
73024;BME280;61199;47.526;8.538;2022-12-20T11:55:32;96766.47;;;6.00;74.42
73024;BME280;61199;47.526;8.538;2022-12-20T12:00:53;96756.78;;;6.02;73.71
73024;BME280;61199;47.526;8.538;2022-12-20T12:03:26;96752.75;;;6.11;73.75
73024;BME280;61199;47.526;8.538;2022-12-20T12:06:11;96750.56;;;6.05;73.81
73024;BME280;61199;47.526;8.538;2022-12-20T12:08:57;96741.75;;;6.07;73.99
73024;BME280;61199;47.526;8.538;2022-12-20T12:11:32;96744.56;;;6.17;74.18
73024;BME280;61199;47.526;8.538;2022-12-20T12:14:28;96718.69;;;6.28;73.63
73024;BME280;61199;47.526;8.538;2022-12-20T12:17:01;96718.19;;;6.35;73.76
73024;BME280;61199;47.526;8.538;2022-12-20T12:19:31;96715.47;;;6.37;74.00
73024;BME280;61199;47.526;8.538;2022-12-20T12:22:08;96715.28;;;6.40;73.73
73024;BME280;61199;47.526;8.538;2022-12-20T12:24:42;96720.69;;;6.49;73.30
73024;BME280;61199;47.526;8.538;2022-12-20T12:27:22;96727.66;;;6.61;73.60
73024;BME280;61199;47.526;8.538;2022-12-20T12:29:48;96720.72;;;6.74;73.60
73024;BME280;61199;47.526;8.538;2022-12-20T12:32:33;96722.16;;;6.91;73.00
73024;BME280;61199;47.526;8.538;2022-12-20T12:38:29;96708.81;;;7.08;72.48
73024;BME280;61199;47.526;8.538;2022-12-20T12:43:43;96698.16;;;7.11;71.72
73024;BME280;61199;47.526;8.538;2022-12-20T12:46:15;96706.09;;;7.22;71.65
73024;BME280;61199;47.526;8.538;2022-12-20T12:48:57;96707.53;;;7.26;71.10
73024;BME280;61199;47.526;8.538;2022-12-20T12:51:34;96700.81;;;7.34;71.33
73024;BME280;61199;47.526;8.538;2022-12-20T12:54:15;96702.44;;;7.12;72.06
73024;BME280;61199;47.526;8.538;2022-12-20T12:56:45;96707.13;;;7.19;72.84
73024;BME280;61199;47.526;8.538;2022-12-20T13:09:51;96700.59;;;7.50;71.35
73024;BME280;61199;47.526;8.538;2022-12-20T13:17:59;96673.75;;;7.84;70.07
73024;BME280;61199;47.526;8.538;2022-12-20T13:20:28;96674.28;;;8.00;70.00
73024;BME280;61199;47.526;8.538;2022-12-20T13:25:49;96675.97;;;8.12;69.04
73024;BME280;61199;47.526;8.538;2022-12-20T13:35:58;96672.97;;;8.29;68.41
73024;BME280;61199;47.526;8.538;2022-12-20T13:49:33;96664.97;;;8.54;67.94
73024;BME280;61199;47.526;8.538;2022-12-20T13:54:45;96660.00;;;8.51;67.74
73024;BME280;61199;47.526;8.538;2022-12-20T13:57:41;96655.25;;;8.45;68.09
73024;BME280;61199;47.526;8.538;2022-12-20T14:00:24;96650.00;;;8.45;68.66
73024;BME280;61199;47.526;8.538;2022-12-20T14:02:52;96632.09;;;8.40;68.67
73024;BME280;61199;47.526;8.538;2022-12-20T14:05:26;96641.13;;;8.47;68.68
73024;BME280;61199;47.526;8.538;2022-12-20T14:08:00;96637.94;;;8.65;68.70
73024;BME280;61199;47.526;8.538;2022-12-20T14:10:30;96636.50;;;8.83;68.37
73024;BME280;61199;47.526;8.538;2022-12-20T14:12:57;96633.53;;;8.88;67.52
73024;BME280;61199;47.526;8.538;2022-12-20T14:15:28;96631.28;;;8.83;67.81
73024;BME280;61199;47.526;8.538;2022-12-20T14:17:55;96634.50;;;8.65;67.82
73024;BME280;61199;47.526;8.538;2022-12-20T14:20:30;96628.22;;;8.68;67.91
73024;BME280;61199;47.526;8.538;2022-12-20T14:23:03;96622.66;;;8.72;67.75
73024;BME280;61199;47.526;8.538;2022-12-20T14:25:42;96636.97;;;8.45;68.56
73024;BME280;61199;47.526;8.538;2022-12-20T14:28:59;96641.13;;;8.36;68.65
73024;BME280;61199;47.526;8.538;2022-12-20T14:31:20;96639.72;;;8.54;68.61
73024;BME280;61199;47.526;8.538;2022-12-20T14:33:48;96655.00;;;8.48;68.91
73024;BME280;61199;47.526;8.538;2022-12-20T14:38:44;96631.53;;;8.59;68.68
73024;BME280;61199;47.526;8.538;2022-12-20T14:41:34;96630.44;;;8.61;68.81
73024;BME280;61199;47.526;8.538;2022-12-20T14:46:34;96637.31;;;8.51;68.93
73024;BME280;61199;47.526;8.538;2022-12-20T14:49:34;96634.34;;;8.45;69.21
73024;BME280;61199;47.526;8.538;2022-12-20T14:52:16;96638.16;;;8.41;69.25
73024;BME280;61199;47.526;8.538;2022-12-20T14:54:59;96631.97;;;8.31;68.98
73024;BME280;61199;47.526;8.538;2022-12-20T15:00:18;96624.50;;;8.26;69.70
73024;BME280;61199;47.526;8.538;2022-12-20T15:11:17;96615.44;;;7.85;71.50
73024;BME280;61199;47.526;8.538;2022-12-20T15:13:46;96605.66;;;7.99;70.84
73024;BME280;61199;47.526;8.538;2022-12-20T15:16:22;96616.91;;;8.00;71.01
73024;BME280;61199;47.526;8.538;2022-12-20T15:18:52;96615.78;;;8.15;70.83
73024;BME280;61199;47.526;8.538;2022-12-20T15:21:36;96624.84;;;8.33;70.35
73024;BME280;61199;47.526;8.538;2022-12-20T15:24:10;96606.94;;;8.39;69.32
73024;BME280;61199;47.526;8.538;2022-12-20T15:26:38;96611.56;;;8.57;68.81
73024;BME280;61199;47.526;8.538;2022-12-20T15:29:05;96616.59;;;8.61;68.71